createdAt,value
2023-05-31T00:00:17.798Z,2.50
2023-05-31T00:02:45.381Z,3.00
2023-05-31T00:05:12.768Z,3.00
2023-05-31T00:07:41.484Z,2.50
2023-05-31T00:10:08.915Z,2.80
2023-05-31T00:12:36.243Z,3.20
2023-05-31T00:15:03.590Z,3.10
2023-05-31T00:17:50.011Z,3.10
2023-05-31T00:20:18.749Z,4.50
2023-05-31T00:22:45.840Z,4.70
2023-05-31T00:25:13.297Z,4.40
2023-05-31T00:27:40.783Z,3.20
2023-05-31T00:30:08.317Z,2.90
2023-05-31T00:32:35.677Z,3.10
2023-05-31T00:35:03.029Z,3.10
2023-05-31T00:37:36.768Z,2.80
2023-05-31T00:40:06.536Z,3.00
2023-05-31T00:42:33.750Z,3.20
2023-05-31T00:45:00.631Z,4.10
2023-05-31T00:47:28.467Z,3.50
2023-05-31T00:49:56.550Z,3.80
2023-05-31T00:52:24.283Z,3.80
2023-05-31T00:54:52.206Z,3.60
2023-05-31T00:57:19.401Z,4.30
2023-05-31T00:59:46.580Z,4.50
2023-05-31T01:02:18.095Z,5.50
2023-05-31T01:04:45.335Z,5.00
2023-05-31T01:07:12.343Z,4.50
2023-05-31T01:09:43.498Z,4.20
2023-05-31T01:12:22.507Z,4.40
2023-05-31T01:15:19.146Z,6.30
2023-05-31T01:17:51.044Z,7.50
2023-05-31T01:20:22.534Z,8.70
2023-05-31T01:23:44.265Z,11.70
2023-05-31T01:26:42.169Z,9.90
2023-05-31T01:29:15.049Z,10.30
2023-05-31T01:31:42.529Z,9.80
2023-05-31T01:34:11.326Z,10.10
2023-05-31T01:36:38.475Z,9.00
2023-05-31T01:39:06.401Z,10.00
2023-05-31T01:41:39.901Z,9.80
2023-05-31T01:44:09.431Z,9.90
2023-05-31T01:46:38.961Z,10.20
2023-05-31T01:49:06.240Z,9.50
2023-05-31T01:51:36.283Z,10.30
2023-05-31T01:54:03.658Z,10.10
2023-05-31T01:56:32.852Z,10.30
2023-05-31T01:59:00.743Z,10.00
2023-05-31T02:01:27.961Z,10.30
2023-05-31T02:03:56.229Z,9.50
2023-05-31T02:06:27.798Z,9.70
2023-05-31T02:08:55.453Z,9.10
2023-05-31T02:11:27.275Z,9.00
2023-05-31T02:13:56.371Z,8.80
2023-05-31T02:16:23.616Z,8.30
2023-05-31T02:18:51.825Z,8.60
2023-05-31T02:23:49.595Z,6.90
2023-05-31T02:26:18.105Z,7.30
2023-05-31T02:28:46.800Z,5.80
2023-05-31T02:31:14.213Z,5.80
2023-05-31T02:33:45.245Z,6.10
2023-05-31T02:36:12.170Z,4.70
2023-05-31T02:38:39.801Z,3.50
2023-05-31T02:41:06.686Z,2.50
2023-05-31T02:43:34.023Z,3.10
2023-05-31T02:46:02.292Z,2.40
2023-05-31T02:48:30.094Z,2.80
2023-05-31T02:50:58.231Z,2.20
2023-05-31T02:53:44.096Z,2.40
2023-05-31T02:56:15.530Z,2.40
2023-05-31T02:58:42.264Z,2.80
2023-05-31T03:01:34.751Z,2.30
2023-05-31T03:04:25.871Z,2.30
2023-05-31T03:06:52.954Z,2.90
2023-05-31T03:09:19.952Z,2.10
2023-05-31T03:11:47.118Z,3.00
2023-05-31T03:14:14.119Z,2.50
2023-05-31T03:16:45.912Z,2.60
2023-05-31T03:19:14.090Z,2.30
2023-05-31T03:21:42.327Z,2.10
2023-05-31T03:24:09.242Z,2.10
2023-05-31T03:26:37.046Z,2.20
2023-05-31T03:29:04.201Z,2.10
2023-05-31T03:31:31.566Z,2.30
2023-05-31T03:33:59.888Z,2.20
2023-05-31T03:36:27.635Z,2.20
2023-05-31T03:38:54.854Z,2.30
2023-05-31T03:41:22.987Z,3.20
2023-05-31T03:43:51.340Z,2.00
2023-05-31T03:46:18.594Z,2.80
2023-05-31T03:48:45.672Z,2.30
2023-05-31T03:51:13.080Z,2.80
2023-05-31T03:53:39.810Z,2.30
2023-05-31T03:56:07.304Z,2.10
2023-05-31T03:58:34.590Z,1.80
2023-05-31T04:01:03.219Z,2.10
2023-05-31T04:03:30.868Z,1.80
2023-05-31T04:05:57.725Z,2.20
2023-05-31T04:08:25.200Z,2.10
2023-05-31T04:10:52.249Z,1.90
2023-05-31T04:13:19.161Z,1.70
2023-05-31T04:15:46.253Z,2.00
2023-05-31T04:18:13.133Z,2.40
2023-05-31T04:20:40.412Z,2.10
2023-05-31T04:23:07.383Z,1.90
2023-05-31T04:25:34.707Z,2.30
2023-05-31T04:28:02.310Z,2.30
2023-05-31T04:30:29.650Z,2.20
2023-05-31T04:32:57.937Z,1.70
2023-05-31T04:35:29.209Z,2.20
2023-05-31T04:42:25.002Z,2.10
2023-05-31T04:45:01.732Z,1.70
2023-05-31T04:47:33.491Z,1.80
2023-05-31T04:50:00.887Z,1.80
2023-05-31T04:52:33.094Z,2.00
2023-05-31T04:55:01.458Z,1.80
2023-05-31T04:57:30.664Z,1.70
2023-05-31T05:00:00.265Z,2.00
2023-05-31T05:02:27.520Z,1.90
2023-05-31T05:04:55.276Z,1.90
2023-05-31T05:07:22.597Z,1.80
2023-05-31T05:09:49.897Z,1.90
2023-05-31T05:12:16.959Z,1.90
2023-05-31T05:14:45.766Z,2.00
2023-05-31T05:17:13.278Z,1.80
2023-05-31T05:19:40.605Z,1.80
2023-05-31T05:22:11.467Z,1.90
2023-05-31T05:24:38.699Z,1.90
2023-05-31T05:27:06.870Z,1.80
2023-05-31T05:29:35.103Z,1.80
2023-05-31T05:32:02.177Z,1.70
2023-05-31T05:34:29.262Z,1.80
2023-05-31T05:36:57.699Z,1.70
2023-05-31T05:39:24.633Z,2.00
2023-05-31T05:41:53.296Z,1.90
2023-05-31T05:44:20.218Z,1.90
2023-05-31T05:46:47.311Z,1.90
2023-05-31T05:49:16.316Z,1.90
2023-05-31T05:51:45.081Z,2.00
2023-05-31T05:54:12.493Z,1.90
2023-05-31T05:56:40.088Z,2.00
2023-05-31T05:59:07.583Z,2.00
2023-05-31T06:01:58.120Z,1.80
2023-05-31T06:04:26.497Z,1.80
2023-05-31T06:06:53.760Z,1.90
2023-05-31T06:09:21.863Z,1.80
2023-05-31T06:11:49.920Z,1.80
2023-05-31T06:14:17.114Z,1.60
2023-05-31T06:16:47.269Z,1.80
2023-05-31T06:19:14.309Z,1.90
2023-05-31T06:21:41.772Z,1.90
2023-05-31T06:24:08.525Z,2.00
2023-05-31T06:26:36.736Z,1.80
2023-05-31T06:29:04.701Z,1.60
2023-05-31T06:32:10.370Z,1.90
2023-05-31T06:34:41.322Z,1.70
2023-05-31T06:37:09.494Z,1.70
2023-05-31T06:39:37.088Z,1.70
2023-05-31T06:42:04.425Z,1.60
2023-05-31T06:44:57.060Z,1.90
2023-05-31T06:47:44.941Z,1.70
2023-05-31T06:50:38.146Z,1.60
2023-05-31T06:53:24.370Z,1.70
2023-05-31T06:55:58.131Z,1.70
2023-05-31T06:58:30.122Z,1.90
2023-05-31T07:00:57.143Z,1.90
2023-05-31T07:03:24.493Z,1.70
2023-05-31T07:05:52.026Z,1.80
2023-05-31T07:08:19.429Z,1.70
2023-05-31T07:11:05.306Z,1.70
2023-05-31T07:13:32.687Z,1.80
2023-05-31T07:15:59.905Z,1.50
2023-05-31T07:18:27.496Z,1.80
2023-05-31T07:20:57.386Z,1.90
2023-05-31T07:23:27.433Z,1.60
2023-05-31T07:25:54.415Z,1.80
2023-05-31T07:28:21.430Z,1.90
2023-05-31T07:30:48.228Z,1.90
2023-05-31T07:33:21.957Z,1.90
2023-05-31T07:36:00.058Z,1.90
2023-05-31T07:38:28.302Z,1.70
2023-05-31T07:40:55.355Z,1.80
2023-05-31T07:43:24.054Z,1.80
2023-05-31T07:45:54.770Z,1.40
2023-05-31T07:48:21.889Z,1.70
2023-05-31T07:50:48.997Z,1.60
2023-05-31T07:53:16.030Z,1.70
2023-05-31T07:55:43.729Z,1.80
2023-05-31T07:58:12.001Z,1.90
2023-05-31T08:00:40.092Z,1.50
2023-05-31T08:03:07.669Z,1.50
2023-05-31T08:05:34.585Z,1.60
2023-05-31T08:08:01.547Z,1.30
2023-05-31T08:10:30.467Z,1.60
2023-05-31T08:12:57.431Z,1.50
2023-05-31T08:15:24.624Z,1.60
2023-05-31T08:17:51.927Z,1.30
2023-05-31T08:20:19.493Z,1.60
2023-05-31T08:22:46.710Z,1.20
2023-05-31T08:25:14.877Z,1.30
2023-05-31T08:27:42.609Z,1.50
2023-05-31T08:30:10.664Z,1.40
2023-05-31T08:32:38.925Z,1.40
2023-05-31T08:35:12.814Z,1.30
2023-05-31T08:37:40.802Z,1.20
2023-05-31T08:40:09.197Z,1.20
2023-05-31T08:42:46.046Z,1.50
2023-05-31T08:45:13.340Z,1.20
2023-05-31T08:47:44.552Z,1.10
2023-05-31T08:50:12.852Z,1.20
2023-05-31T08:52:40.604Z,1.30
2023-05-31T08:55:08.601Z,1.50
2023-05-31T08:57:37.499Z,1.10
2023-05-31T09:00:11.584Z,1.00
2023-05-31T09:02:39.141Z,1.30
2023-05-31T09:05:10.966Z,1.00
2023-05-31T09:07:39.091Z,1.10
2023-05-31T09:10:09.368Z,0.80
2023-05-31T09:12:37.131Z,1.00
2023-05-31T09:15:06.504Z,1.00
2023-05-31T09:17:33.945Z,0.80
2023-05-31T09:20:01.687Z,1.10
2023-05-31T09:22:29.278Z,1.20
2023-05-31T09:24:59.313Z,1.10
2023-05-31T09:27:34.267Z,1.10
2023-05-31T09:30:05.758Z,1.10
2023-05-31T09:32:36.498Z,1.10
2023-05-31T09:35:14.917Z,1.00
2023-05-31T09:37:47.125Z,1.10
2023-05-31T09:40:25.410Z,1.20
2023-05-31T09:42:55.529Z,1.20
2023-05-31T09:45:23.489Z,1.00
2023-05-31T09:47:51.203Z,1.00
2023-05-31T09:50:20.661Z,0.90
2023-05-31T09:52:52.521Z,1.00
2023-05-31T09:55:19.368Z,0.80
2023-05-31T09:57:46.998Z,0.80
2023-05-31T10:00:21.508Z,1.10
2023-05-31T10:02:55.215Z,0.90
2023-05-31T10:05:22.528Z,1.40
2023-05-31T10:07:52.673Z,1.00
2023-05-31T10:10:22.740Z,1.00
2023-05-31T10:12:52.277Z,0.60
2023-05-31T10:15:24.602Z,1.10
2023-05-31T10:18:15.913Z,0.80
2023-05-31T10:21:00.346Z,1.00
2023-05-31T10:23:30.462Z,0.80
2023-05-31T10:26:16.322Z,0.80
2023-05-31T10:28:56.065Z,0.80
2023-05-31T10:31:26.764Z,0.90
2023-05-31T10:34:01.645Z,1.00
2023-05-31T10:36:29.059Z,0.80
2023-05-31T10:39:04.022Z,0.90
2023-05-31T10:41:43.801Z,0.80
2023-05-31T10:44:23.711Z,0.70
2023-05-31T10:46:59.535Z,0.90
2023-05-31T10:49:28.485Z,0.80
2023-05-31T10:52:04.620Z,0.90
2023-05-31T10:54:33.601Z,0.80
2023-05-31T10:57:04.288Z,0.90
2023-05-31T10:59:41.887Z,0.70
2023-05-31T11:02:12.260Z,0.90
2023-05-31T11:04:39.661Z,0.90
2023-05-31T11:07:15.313Z,0.70
2023-05-31T11:09:54.123Z,0.70
2023-05-31T11:12:37.376Z,0.70
2023-05-31T11:15:06.047Z,0.70
2023-05-31T11:17:50.802Z,0.80
2023-05-31T11:20:19.195Z,0.80
2023-05-31T11:22:46.935Z,0.70
2023-05-31T11:25:23.868Z,0.60
2023-05-31T11:28:06.644Z,0.80
2023-05-31T11:30:38.356Z,0.80
2023-05-31T11:33:15.184Z,0.80
2023-05-31T11:35:42.227Z,0.90
2023-05-31T11:38:10.245Z,0.80
2023-05-31T11:40:37.382Z,0.80
2023-05-31T11:43:09.775Z,1.00
2023-05-31T11:45:41.293Z,0.90
2023-05-31T11:48:37.111Z,0.70
2023-05-31T11:51:04.880Z,0.90
2023-05-31T11:53:32.764Z,0.80
2023-05-31T11:55:59.735Z,0.80
2023-05-31T11:58:27.356Z,0.80
2023-05-31T12:00:58.003Z,0.80
2023-05-31T12:03:24.894Z,0.90
2023-05-31T12:05:56.740Z,0.80
2023-05-31T12:10:21.190Z,0.80
2023-05-31T12:12:48.405Z,0.80
2023-05-31T12:15:17.354Z,0.90
2023-05-31T12:17:44.510Z,0.90
2023-05-31T12:20:13.155Z,0.80
2023-05-31T12:22:40.932Z,0.90
2023-05-31T12:25:10.338Z,0.80
2023-05-31T12:30:20.525Z,0.90
2023-05-31T12:32:47.671Z,0.90
2023-05-31T12:35:15.453Z,0.90
2023-05-31T12:37:42.829Z,0.80
2023-05-31T12:40:10.080Z,0.90
2023-05-31T12:42:38.740Z,1.00
2023-05-31T12:45:06.461Z,0.80
2023-05-31T12:47:36.268Z,0.60
2023-05-31T12:50:07.841Z,0.70
2023-05-31T12:52:39.323Z,0.80
2023-05-31T12:55:08.363Z,0.80
2023-05-31T12:57:36.561Z,0.90
2023-05-31T13:00:12.051Z,0.70
2023-05-31T13:02:40.943Z,0.70
2023-05-31T13:05:08.710Z,0.80
2023-05-31T13:07:36.807Z,0.60
2023-05-31T13:10:09.260Z,0.70
2023-05-31T13:12:38.789Z,0.70
2023-05-31T13:15:07.575Z,0.80
2023-05-31T13:17:34.917Z,0.80
2023-05-31T13:20:11.823Z,0.70
2023-05-31T13:22:41.966Z,0.70
2023-05-31T13:25:09.892Z,0.80
2023-05-31T13:27:37.186Z,0.70
2023-05-31T13:30:04.809Z,0.80
2023-05-31T13:32:32.954Z,0.90
2023-05-31T13:35:01.211Z,0.90
2023-05-31T13:37:28.683Z,0.80
2023-05-31T13:39:56.246Z,0.80
2023-05-31T13:42:23.503Z,0.80
2023-05-31T13:44:50.800Z,0.80
2023-05-31T13:47:17.689Z,0.80
2023-05-31T13:49:45.135Z,0.70
2023-05-31T13:52:15.484Z,0.90
2023-05-31T13:54:42.458Z,0.80
2023-05-31T13:57:09.425Z,0.60
2023-05-31T13:59:37.645Z,0.70
2023-05-31T14:02:05.288Z,0.80
2023-05-31T14:04:34.789Z,0.70
2023-05-31T14:07:03.801Z,0.70
2023-05-31T14:09:31.030Z,0.80
2023-05-31T14:11:58.877Z,0.80
2023-05-31T14:14:27.508Z,0.70
2023-05-31T14:16:55.055Z,0.90
2023-05-31T14:19:22.054Z,0.70
2023-05-31T14:21:48.963Z,0.70
2023-05-31T14:24:16.981Z,0.90
2023-05-31T14:26:43.844Z,0.70
2023-05-31T14:29:11.066Z,0.70
2023-05-31T14:31:38.584Z,0.80
2023-05-31T14:34:05.933Z,0.80
2023-05-31T14:36:33.368Z,0.70
2023-05-31T14:39:04.566Z,1.20
2023-05-31T14:41:31.546Z,0.40
2023-05-31T14:43:58.531Z,0.80
2023-05-31T14:46:25.595Z,0.80
2023-05-31T14:48:54.222Z,0.70
2023-05-31T14:51:22.564Z,0.90
2023-05-31T14:53:51.996Z,0.80
2023-05-31T14:56:21.418Z,0.90
2023-05-31T14:58:48.721Z,0.80
2023-05-31T15:01:16.246Z,1.00
2023-05-31T15:03:43.555Z,1.00
2023-05-31T15:06:10.701Z,0.80
2023-05-31T15:08:38.198Z,0.80
2023-05-31T15:11:05.326Z,0.80
2023-05-31T15:13:33.270Z,0.80
2023-05-31T15:16:01.390Z,0.80
2023-05-31T15:18:30.105Z,0.80
2023-05-31T15:20:57.176Z,0.60
2023-05-31T15:23:24.645Z,0.90
2023-05-31T15:25:51.612Z,1.00
2023-05-31T15:28:18.576Z,0.60
2023-05-31T15:30:48.050Z,0.70
2023-05-31T15:33:15.429Z,0.90
2023-05-31T15:35:42.520Z,0.70
2023-05-31T15:38:09.693Z,0.90
2023-05-31T15:40:36.794Z,0.70
2023-05-31T15:43:03.885Z,0.80
2023-05-31T15:45:30.938Z,0.80
2023-05-31T15:47:57.698Z,1.00
2023-05-31T15:50:25.132Z,0.90
2023-05-31T15:52:51.871Z,0.70
2023-05-31T15:55:18.768Z,0.80
2023-05-31T15:57:45.793Z,0.70
2023-05-31T16:00:13.278Z,1.00
2023-05-31T16:02:40.794Z,0.80
2023-05-31T16:05:09.482Z,0.70
2023-05-31T16:07:38.074Z,0.90
2023-05-31T16:10:05.405Z,0.80
2023-05-31T16:12:33.138Z,0.90
2023-05-31T16:15:01.296Z,0.80
2023-05-31T16:17:28.210Z,0.70
2023-05-31T16:19:56.157Z,0.70
2023-05-31T16:22:23.283Z,0.70
2023-05-31T16:24:50.990Z,0.80
2023-05-31T16:27:18.511Z,0.70
2023-05-31T16:29:45.617Z,0.70
2023-05-31T16:32:12.468Z,0.70
2023-05-31T16:34:39.470Z,0.70
2023-05-31T16:37:08.919Z,0.80
2023-05-31T16:39:37.787Z,0.60
2023-05-31T16:42:06.712Z,0.90
2023-05-31T16:44:35.580Z,0.80
2023-05-31T16:47:02.969Z,0.90
2023-05-31T16:49:30.049Z,0.80
2023-05-31T16:51:57.453Z,0.80
2023-05-31T16:54:24.540Z,1.00
2023-05-31T16:56:51.592Z,0.80
2023-05-31T16:59:18.610Z,0.80
2023-05-31T17:01:45.442Z,0.80
2023-05-31T17:04:12.555Z,0.90
2023-05-31T17:06:39.560Z,0.90
2023-05-31T17:09:06.378Z,0.70
2023-05-31T17:11:37.233Z,0.70
2023-05-31T17:14:04.380Z,0.90
2023-05-31T17:16:31.611Z,0.90
2023-05-31T17:18:59.506Z,1.00
2023-05-31T17:21:30.125Z,1.00
2023-05-31T17:23:57.247Z,0.90
2023-05-31T17:26:26.333Z,0.70
2023-05-31T17:28:54.111Z,0.60
2023-05-31T17:31:21.690Z,0.80
2023-05-31T17:33:48.545Z,0.90
2023-05-31T17:36:15.388Z,1.10
2023-05-31T17:38:42.338Z,1.60
2023-05-31T17:41:09.219Z,0.90
2023-05-31T17:43:36.957Z,0.70
2023-05-31T17:46:03.957Z,0.90
2023-05-31T17:48:31.203Z,0.60
2023-05-31T17:50:59.664Z,0.80
2023-05-31T17:53:26.603Z,0.80
2023-05-31T17:55:53.934Z,0.70
2023-05-31T17:58:23.413Z,0.90
2023-05-31T18:00:50.427Z,0.80
2023-05-31T18:03:17.421Z,0.70
2023-05-31T18:05:44.341Z,0.90
2023-05-31T18:08:11.252Z,0.70
2023-05-31T18:10:38.764Z,0.90
2023-05-31T18:13:05.648Z,0.90
2023-05-31T18:15:32.775Z,0.70
2023-05-31T18:17:59.996Z,0.80
2023-05-31T18:20:27.726Z,0.80
2023-05-31T18:22:54.822Z,1.00
2023-05-31T18:25:28.833Z,0.70
2023-05-31T18:27:56.303Z,0.80
2023-05-31T18:30:24.628Z,0.90
2023-05-31T18:32:51.509Z,1.10
2023-05-31T18:35:19.210Z,1.10
2023-05-31T18:37:46.403Z,1.30
2023-05-31T18:40:13.497Z,1.00
2023-05-31T18:42:40.637Z,0.90
2023-05-31T18:45:08.089Z,1.00
2023-05-31T18:47:38.802Z,0.60
2023-05-31T18:50:06.781Z,0.90
2023-05-31T18:52:34.835Z,0.80
2023-05-31T18:55:01.558Z,1.50
2023-05-31T18:57:28.935Z,0.80
2023-05-31T18:59:57.520Z,0.90
2023-05-31T19:02:24.647Z,1.00
2023-05-31T19:04:51.505Z,0.90
2023-05-31T19:07:18.525Z,0.70
2023-05-31T19:09:45.889Z,0.80
2023-05-31T19:12:26.664Z,0.90
2023-05-31T19:14:57.764Z,0.70
2023-05-31T19:17:24.724Z,1.00
2023-05-31T19:19:51.549Z,1.10
2023-05-31T19:22:20.284Z,1.10
2023-05-31T19:24:46.982Z,0.80
2023-05-31T19:27:13.921Z,1.00
2023-05-31T19:29:41.713Z,0.80
2023-05-31T19:32:09.661Z,0.80
2023-05-31T19:34:37.946Z,0.80
2023-05-31T19:37:05.363Z,0.90
2023-05-31T19:39:32.493Z,0.90
2023-05-31T19:42:00.502Z,0.90
2023-05-31T19:44:27.740Z,0.90
2023-05-31T19:46:56.612Z,0.90
2023-05-31T19:49:24.147Z,0.90
2023-05-31T19:51:52.056Z,0.90
2023-05-31T19:54:22.406Z,1.00
2023-05-31T19:56:49.113Z,0.90
2023-05-31T19:59:16.915Z,1.00
2023-05-31T20:01:43.704Z,1.10
2023-05-31T20:04:11.122Z,1.20
2023-05-31T20:06:38.269Z,1.10
2023-05-31T20:09:05.343Z,1.00
2023-05-31T20:11:35.737Z,1.00
2023-05-31T20:14:04.043Z,1.30
2023-05-31T20:16:31.786Z,1.40
2023-05-31T20:18:59.181Z,1.60
2023-05-31T20:21:26.120Z,1.50
2023-05-31T20:23:53.080Z,1.70
2023-05-31T20:26:25.582Z,1.80
2023-05-31T20:28:52.555Z,2.10
2023-05-31T20:31:19.421Z,2.50
2023-05-31T20:33:46.333Z,2.80
2023-05-31T20:36:13.209Z,2.40
2023-05-31T20:38:41.515Z,2.30
2023-05-31T20:41:09.132Z,2.20
2023-05-31T20:43:36.525Z,2.20
2023-05-31T20:46:08.409Z,2.60
2023-05-31T20:48:37.992Z,2.30
2023-05-31T20:51:04.890Z,2.20
2023-05-31T20:53:33.172Z,2.10
2023-05-31T20:56:01.456Z,2.20
2023-05-31T20:58:31.691Z,2.20
2023-05-31T21:00:59.710Z,2.40
2023-05-31T21:03:27.942Z,2.30
2023-05-31T21:05:55.309Z,2.10
2023-05-31T21:08:24.103Z,2.30
2023-05-31T21:10:52.026Z,2.20
2023-05-31T21:13:19.596Z,2.10
2023-05-31T21:15:46.742Z,1.80
2023-05-31T21:18:13.996Z,1.70
2023-05-31T21:23:26.664Z,1.50
2023-05-31T21:25:53.703Z,1.70
2023-05-31T21:28:21.740Z,1.40
2023-05-31T21:30:48.772Z,1.60
2023-05-31T21:33:18.610Z,1.70
2023-05-31T21:35:46.874Z,1.00
2023-05-31T21:38:17.522Z,0.90
2023-05-31T21:40:44.232Z,1.10
2023-05-31T21:43:14.028Z,0.90
2023-05-31T21:45:41.036Z,1.00
2023-05-31T21:48:08.247Z,1.00
2023-05-31T21:50:40.301Z,1.00
2023-05-31T21:53:07.126Z,0.80
2023-05-31T21:55:34.141Z,0.80
2023-05-31T21:58:01.094Z,0.90
2023-05-31T22:00:29.547Z,0.90
2023-05-31T22:02:57.315Z,0.90
2023-05-31T22:05:24.472Z,1.20
2023-05-31T22:07:51.647Z,1.10
2023-05-31T22:10:27.583Z,1.20
2023-05-31T22:12:57.956Z,1.20
2023-05-31T22:15:26.678Z,1.00
2023-05-31T22:17:58.735Z,1.30
2023-05-31T22:20:27.149Z,1.20
2023-05-31T22:22:56.280Z,1.20
2023-05-31T22:25:23.266Z,1.00
2023-05-31T22:27:51.793Z,1.10
2023-05-31T22:30:20.058Z,1.20
2023-05-31T22:32:47.128Z,1.80
2023-05-31T22:35:16.195Z,1.40
2023-05-31T22:37:45.013Z,1.40
2023-05-31T22:40:13.878Z,1.70
2023-05-31T22:42:46.033Z,1.40
2023-05-31T22:45:13.147Z,1.40
2023-05-31T22:47:40.105Z,1.20
2023-05-31T22:50:11.623Z,1.50
2023-05-31T22:52:40.944Z,1.50
2023-05-31T22:55:09.110Z,1.70
2023-05-31T22:57:35.957Z,1.80
2023-05-31T23:00:05.546Z,2.10
2023-05-31T23:02:38.555Z,2.30
2023-05-31T23:07:34.823Z,1.90
2023-05-31T23:10:04.549Z,3.30
2023-05-31T23:12:31.845Z,3.30
2023-05-31T23:14:59.919Z,3.60
2023-05-31T23:17:35.592Z,4.10
2023-05-31T23:20:15.288Z,3.60
2023-05-31T23:22:44.334Z,3.40
2023-05-31T23:25:12.248Z,3.90
2023-05-31T23:27:42.012Z,2.90
2023-05-31T23:30:13.973Z,2.90
2023-05-31T23:32:41.932Z,2.20
2023-05-31T23:35:09.132Z,2.30
2023-05-31T23:37:42.249Z,2.60
2023-05-31T23:40:10.424Z,2.50
2023-05-31T23:42:39.122Z,3.10
2023-05-31T23:45:06.652Z,2.10
2023-05-31T23:47:33.819Z,2.00
2023-05-31T23:50:00.778Z,2.00
2023-05-31T23:52:30.440Z,2.00
2023-05-31T23:55:00.191Z,2.10
2023-05-31T23:57:31.132Z,2.20
2023-05-31T23:59:58.298Z,2.20
